Portada
METAR-TAF:

METAR-TAF

Aeroports :

RAF

Spadeadam, Anglaterra

latitud: 55-03N, longitud: 002-33W, altitud: 325 m

Observació

L'informe es va fer fa 1 hora i 20 minuts, a les 21:50 UTC
Vent 18 kt del Oest/Sud-Oest
Temperatura 1°C
Humitat 100%
Pressió 1006 hPa
Visibilitat: 8000 m
neu

METAR: EGOM 182150Z AUTO 25018KT 8000 -SN BKN004/// SCT013/// 01/01 Q1006

Hora: 23:10 (23:10 UTC)


TAF: manca

Observacions i pronòstics meteorològics de més de 4000 aeroports (METAR i TAF).

Les estacions disponibles són els punts grocs i vermells al mapa.

Posi el ratolí al punt desitjat per veure el nom de l'estació.

Feu clic per veure les observacions i els pronòstics meteorològics.

Per canviar el mapa: feu clic els botons verds amb una creu de color negre per apropar; al botó verd amb un guió per allunyar la imatge; o en les fletxes verdes per a mapes adjacents.


METAR-TAF: